createdAt,value
2022-08-09T00:00:00.051Z,26.12
2022-08-09T00:02:33.499Z,26.07
2022-08-09T00:05:02.882Z,26.07
2022-08-09T00:07:44.897Z,26.11
2022-08-09T00:10:08.887Z,26.06
2022-08-09T00:12:40.649Z,25.89
2022-08-09T00:15:07.115Z,26.00
2022-08-09T00:18:06.044Z,25.96
2022-08-09T00:20:21.275Z,25.89
2022-08-09T00:22:47.092Z,25.87
2022-08-09T00:25:12.866Z,25.88
2022-08-09T00:27:43.207Z,25.95
2022-08-09T00:30:24.755Z,25.87
2022-08-09T00:32:49.682Z,25.82
2022-08-09T00:35:14.118Z,25.81
2022-08-09T00:37:37.837Z,25.79
2022-08-09T00:40:12.596Z,25.61
2022-08-09T00:44:10.640Z,25.63
2022-08-09T00:45:23.379Z,25.54
2022-08-09T00:47:48.787Z,25.58
2022-08-09T00:50:14.330Z,25.62
2022-08-09T00:52:38.397Z,25.57
2022-08-09T00:55:01.853Z,25.61
2022-08-09T00:57:34.240Z,25.48
2022-08-09T01:00:00.673Z,25.48
2022-08-09T01:02:28.348Z,25.51
2022-08-09T01:04:54.675Z,25.59
2022-08-09T01:07:20.796Z,25.55
2022-08-09T01:10:03.956Z,25.42
2022-08-09T01:12:32.414Z,25.39
2022-08-09T01:14:57.870Z,25.41
2022-08-09T01:17:25.398Z,25.39
2022-08-09T01:20:02.538Z,25.39
2022-08-09T01:22:54.836Z,25.38
2022-08-09T01:25:22.921Z,25.42
2022-08-09T01:27:47.556Z,25.36
2022-08-09T01:30:28.649Z,25.39
2022-08-09T01:32:58.083Z,25.29
2022-08-09T01:35:37.379Z,25.36
2022-08-09T01:38:08.249Z,25.31
2022-08-09T01:40:38.519Z,25.38
2022-08-09T01:43:04.600Z,25.32
2022-08-09T01:45:31.007Z,25.33
2022-08-09T01:47:54.354Z,25.36
2022-08-09T01:50:17.603Z,25.32
2022-08-09T01:52:41.290Z,25.30
2022-08-09T01:55:07.454Z,25.33
2022-08-09T01:57:45.788Z,25.38
2022-08-09T02:00:34.987Z,25.28
2022-08-09T02:02:55.561Z,25.27
2022-08-09T02:05:20.712Z,25.17
2022-08-09T02:08:41.054Z,25.21
2022-08-09T02:10:50.712Z,25.18
2022-08-09T02:13:14.844Z,25.25
2022-08-09T02:15:50.452Z,25.20
2022-08-09T02:18:13.976Z,25.21
2022-08-09T02:20:39.746Z,25.29
2022-08-09T02:23:07.954Z,25.16
2022-08-09T02:25:41.955Z,25.14
2022-08-09T02:28:11.541Z,25.20
2022-08-09T02:30:44.167Z,25.22
2022-08-09T02:33:14.604Z,25.20
2022-08-09T02:36:03.407Z,25.13
2022-08-09T02:38:28.805Z,25.09
2022-08-09T02:40:53.038Z,25.05
2022-08-09T02:43:19.310Z,25.09
2022-08-09T02:45:45.835Z,25.11
2022-08-09T02:48:30.898Z,25.10
2022-08-09T02:50:56.525Z,25.11
2022-08-09T02:53:26.232Z,25.01
2022-08-09T02:55:57.945Z,25.03
2022-08-09T02:58:37.218Z,25.11
2022-08-09T03:01:04.384Z,25.02
2022-08-09T03:04:05.786Z,25.02
2022-08-09T03:06:15.072Z,25.02
2022-08-09T03:08:39.423Z,24.79
2022-08-09T03:11:04.403Z,25.07
2022-08-09T03:13:27.597Z,25.07
2022-08-09T03:16:09.027Z,25.07
2022-08-09T03:18:32.753Z,24.95
2022-08-09T03:20:56.058Z,25.06
2022-08-09T03:23:24.243Z,25.05
2022-08-09T03:25:56.896Z,25.02
2022-08-09T03:28:26.914Z,24.87
2022-08-09T03:30:50.184Z,24.90
2022-08-09T03:33:18.829Z,25.03
2022-08-09T03:36:11.427Z,24.93
2022-08-09T03:38:29.152Z,24.90
2022-08-09T03:40:53.944Z,24.87
2022-08-09T03:43:17.284Z,24.93
2022-08-09T03:46:04.758Z,24.88
2022-08-09T03:48:30.732Z,24.93
2022-08-09T03:50:55.154Z,24.95
2022-08-09T03:53:20.112Z,24.66
2022-08-09T03:55:44.074Z,24.69
2022-08-09T03:58:17.091Z,24.74
2022-08-09T04:00:44.481Z,24.77
2022-08-09T04:03:08.070Z,24.82
2022-08-09T04:05:40.393Z,24.85
2022-08-09T04:08:03.969Z,24.87
2022-08-09T04:10:29.195Z,24.81
2022-08-09T04:12:53.971Z,24.81
2022-08-09T04:15:42.562Z,24.85
2022-08-09T04:18:00.701Z,24.86
2022-08-09T04:20:24.163Z,24.92
2022-08-09T04:22:50.674Z,24.88
2022-08-09T04:25:14.351Z,24.86
2022-08-09T04:27:41.603Z,24.90
2022-08-09T04:30:05.744Z,24.96
2022-08-09T04:32:33.663Z,24.86
2022-08-09T04:35:01.197Z,25.00
2022-08-09T04:37:24.890Z,25.01
2022-08-09T04:40:11.288Z,25.04
2022-08-09T04:42:42.806Z,25.02
2022-08-09T04:45:06.710Z,25.00
2022-08-09T04:47:45.057Z,24.92
2022-08-09T04:50:13.404Z,24.99
2022-08-09T04:52:36.930Z,25.05
2022-08-09T04:55:02.470Z,25.06
2022-08-09T04:57:58.367Z,25.14
2022-08-09T05:00:16.606Z,25.17
2022-08-09T05:02:41.813Z,25.17
2022-08-09T05:05:09.797Z,25.26
2022-08-09T05:07:33.470Z,25.30
2022-08-09T05:09:56.704Z,25.29
2022-08-09T05:12:22.559Z,25.31
2022-08-09T05:14:47.357Z,25.26
2022-08-09T05:17:15.424Z,25.37
2022-08-09T05:19:56.859Z,25.42
2022-08-09T05:22:36.542Z,25.38
2022-08-09T05:25:03.848Z,25.48
2022-08-09T05:27:27.090Z,25.52
2022-08-09T05:29:55.874Z,25.57
2022-08-09T05:32:19.134Z,25.59
2022-08-09T05:34:46.914Z,25.67
2022-08-09T05:37:11.485Z,25.69
2022-08-09T05:39:36.507Z,25.74
2022-08-09T05:42:07.378Z,25.78
2022-08-09T05:44:32.634Z,25.80
2022-08-09T05:46:57.529Z,25.83
2022-08-09T05:49:33.958Z,25.88
2022-08-09T05:52:06.137Z,25.93
2022-08-09T05:54:29.409Z,26.00
2022-08-09T05:56:54.516Z,26.04
2022-08-09T05:59:19.918Z,26.06
2022-08-09T06:01:43.638Z,26.12
2022-08-09T06:04:08.453Z,26.12
2022-08-09T06:06:31.911Z,26.14
2022-08-09T06:08:55.732Z,26.25
2022-08-09T06:11:19.047Z,26.23
2022-08-09T06:13:47.851Z,26.27
2022-08-09T06:16:11.374Z,26.32
2022-08-09T06:18:36.516Z,26.35
2022-08-09T06:21:01.295Z,26.37
2022-08-09T06:23:24.639Z,26.39
2022-08-09T06:26:08.091Z,26.42
2022-08-09T06:28:32.897Z,26.45
2022-08-09T06:30:56.168Z,26.48
2022-08-09T06:33:39.648Z,26.45
2022-08-09T06:36:04.516Z,26.52
2022-08-09T06:38:35.078Z,26.53
2022-08-09T06:41:01.067Z,26.56
2022-08-09T06:43:26.857Z,26.64
2022-08-09T06:46:06.593Z,26.66
2022-08-09T06:48:34.167Z,26.65
2022-08-09T06:50:58.658Z,26.69
2022-08-09T06:53:23.322Z,26.70
2022-08-09T06:55:48.406Z,26.77
2022-08-09T07:00:46.651Z,26.77
2022-08-09T07:00:59.606Z,26.83
2022-08-09T07:03:27.921Z,26.84
2022-08-09T07:06:02.739Z,26.88
2022-08-09T07:08:29.048Z,26.93
2022-08-09T07:10:53.828Z,26.93
2022-08-09T07:13:27.660Z,27.00
2022-08-09T07:16:34.791Z,26.95
2022-08-09T07:18:36.073Z,26.98
2022-08-09T07:21:01.999Z,26.94
2022-08-09T07:23:25.381Z,27.07
2022-08-09T07:26:02.461Z,27.02
2022-08-09T07:28:28.304Z,27.09
2022-08-09T07:30:51.754Z,27.03
2022-08-09T07:33:16.704Z,27.17
2022-08-09T07:35:54.119Z,27.18
2022-08-09T07:38:18.330Z,27.06
2022-08-09T07:41:00.971Z,27.01
2022-08-09T07:43:29.094Z,27.12
2022-08-09T07:45:52.468Z,27.41
2022-08-09T07:48:25.718Z,27.30
2022-08-09T07:51:09.351Z,27.35
2022-08-09T07:54:04.194Z,27.32
2022-08-09T07:56:27.248Z,27.29
2022-08-09T07:58:52.151Z,27.18
2022-08-09T08:01:15.586Z,27.10
2022-08-09T08:03:44.847Z,27.09
2022-08-09T08:06:10.257Z,27.06
2022-08-09T08:09:02.747Z,27.34
2022-08-09T08:12:09.741Z,27.26
2022-08-09T08:14:06.305Z,27.31
2022-08-09T08:16:31.794Z,27.34
2022-08-09T08:18:55.591Z,27.25
2022-08-09T08:21:19.018Z,27.25
2022-08-09T08:23:42.515Z,27.28
2022-08-09T08:26:19.106Z,27.38
2022-08-09T08:29:02.719Z,27.54
2022-08-09T08:32:02.238Z,27.80
2022-08-09T08:34:10.708Z,27.74
2022-08-09T08:36:37.655Z,27.64
2022-08-09T08:39:03.483Z,27.47
2022-08-09T08:41:50.838Z,27.33
2022-08-09T08:44:13.819Z,27.29
2022-08-09T08:46:59.893Z,27.29
2022-08-09T08:49:29.512Z,27.35
2022-08-09T08:52:04.213Z,27.41
2022-08-09T08:54:33.911Z,27.34
2022-08-09T08:56:58.158Z,27.48
2022-08-09T08:59:22.044Z,27.67
2022-08-09T09:01:57.387Z,27.62
2022-08-09T09:04:27.440Z,27.63
2022-08-09T09:06:51.071Z,27.49
2022-08-09T09:09:21.207Z,27.35
2022-08-09T09:11:58.169Z,27.45
2022-08-09T09:14:24.552Z,27.50
2022-08-09T09:16:47.842Z,27.63
2022-08-09T09:19:37.076Z,27.59
2022-08-09T09:22:05.225Z,27.49
2022-08-09T09:24:32.398Z,27.54
2022-08-09T09:26:56.141Z,27.56
2022-08-09T09:29:19.829Z,27.48
2022-08-09T09:32:03.688Z,27.52
2022-08-09T09:34:29.030Z,27.54
2022-08-09T09:36:53.884Z,27.46
2022-08-09T09:39:20.008Z,27.46
2022-08-09T09:41:49.029Z,27.43
2022-08-09T09:44:15.659Z,27.43
2022-08-09T09:46:52.126Z,27.42
2022-08-09T09:49:56.451Z,27.43
2022-08-09T09:52:16.259Z,27.45
2022-08-09T09:54:55.192Z,27.45
2022-08-09T09:58:04.183Z,27.44
2022-08-09T10:00:03.567Z,27.44
2022-08-09T10:02:31.313Z,27.46
2022-08-09T10:05:06.509Z,27.49
2022-08-09T10:07:31.694Z,27.47
2022-08-09T10:09:56.365Z,27.46
2022-08-09T10:12:28.559Z,27.47
2022-08-09T10:14:53.793Z,27.45
2022-08-09T10:17:39.151Z,27.46
2022-08-09T10:20:01.767Z,27.49
2022-08-09T10:22:34.719Z,27.52
2022-08-09T10:24:58.310Z,27.51
2022-08-09T10:27:34.505Z,27.50
2022-08-09T10:30:43.641Z,27.48
2022-08-09T10:32:42.789Z,27.50
2022-08-09T10:35:13.803Z,27.53
2022-08-09T10:37:39.090Z,27.48
2022-08-09T10:40:02.596Z,27.52
2022-08-09T10:42:27.100Z,27.57
2022-08-09T10:44:51.295Z,27.55
2022-08-09T10:48:25.834Z,27.63
2022-08-09T10:50:20.985Z,27.53
2022-08-09T10:53:05.603Z,27.60
2022-08-09T10:55:35.686Z,27.56
2022-08-09T10:58:31.063Z,27.61
2022-08-09T11:03:06.450Z,27.63
2022-08-09T11:03:50.195Z,27.63
2022-08-09T11:06:19.693Z,27.62
2022-08-09T11:08:47.206Z,27.63
2022-08-09T11:11:11.387Z,27.64
2022-08-09T11:13:53.798Z,27.71
2022-08-09T11:16:35.000Z,27.73
2022-08-09T11:18:59.336Z,27.80
2022-08-09T11:21:55.096Z,27.77
2022-08-09T11:24:22.684Z,27.84
2022-08-09T11:26:52.198Z,27.88
2022-08-09T11:30:06.119Z,27.78
2022-08-09T11:32:46.439Z,27.80
2022-08-09T11:35:14.597Z,27.79
2022-08-09T11:37:40.950Z,27.78
2022-08-09T11:40:08.183Z,27.76
2022-08-09T11:42:50.467Z,27.75
2022-08-09T11:45:26.388Z,27.88
2022-08-09T11:48:26.080Z,27.84
2022-08-09T11:52:49.360Z,27.83
2022-08-09T11:53:58.799Z,27.73
2022-08-09T11:56:41.886Z,27.80
2022-08-09T11:59:12.324Z,27.79
2022-08-09T12:01:37.646Z,27.82
2022-08-09T12:04:23.595Z,27.82
2022-08-09T12:06:55.839Z,27.89
2022-08-09T12:09:25.520Z,28.01
2022-08-09T12:12:03.249Z,28.08
2022-08-09T12:14:36.937Z,28.06
2022-08-09T12:17:23.383Z,28.12
2022-08-09T12:19:50.925Z,28.06
2022-08-09T12:22:23.504Z,28.04
2022-08-09T12:24:49.584Z,28.06
2022-08-09T12:29:13.971Z,28.08
2022-08-09T12:30:36.965Z,28.05
2022-08-09T12:32:51.985Z,28.04
2022-08-09T12:35:19.456Z,28.04
2022-08-09T12:37:51.875Z,28.01
2022-08-09T12:40:18.090Z,28.00
2022-08-09T12:42:45.835Z,28.11
2022-08-09T12:45:33.387Z,28.15
2022-08-09T12:47:53.371Z,28.14
2022-08-09T12:50:23.543Z,28.11
2022-08-09T12:53:08.262Z,28.06
2022-08-09T12:56:14.497Z,28.05
2022-08-09T12:58:27.431Z,28.09
2022-08-09T13:00:51.710Z,28.05
2022-08-09T13:03:24.448Z,28.04
2022-08-09T13:06:13.191Z,28.04
2022-08-09T13:08:43.477Z,28.04
2022-08-09T13:11:23.348Z,28.09
2022-08-09T13:14:42.307Z,28.04
2022-08-09T13:16:41.903Z,28.01
2022-08-09T13:19:09.240Z,28.03
2022-08-09T13:23:00.419Z,28.13
2022-08-09T13:24:48.391Z,28.14
2022-08-09T13:26:59.959Z,28.14
2022-08-09T13:30:03.156Z,28.17
2022-08-09T13:32:19.458Z,28.19
2022-08-09T13:34:50.251Z,28.20
2022-08-09T13:37:24.619Z,28.21
2022-08-09T13:41:52.251Z,28.18
2022-08-09T13:42:43.022Z,28.20
2022-08-09T13:45:12.431Z,28.18
2022-08-09T13:47:43.988Z,28.17
2022-08-09T13:50:18.056Z,28.19
2022-08-09T13:52:53.538Z,28.24
2022-08-09T13:55:17.729Z,28.26
2022-08-09T13:57:42.793Z,28.23
2022-08-09T14:00:10.025Z,28.20
2022-08-09T14:02:42.636Z,28.24
2022-08-09T14:06:00.374Z,27.94
2022-08-09T14:08:04.466Z,28.27
2022-08-09T14:10:37.245Z,28.25
2022-08-09T14:13:12.168Z,28.24
2022-08-09T14:16:07.165Z,28.24
2022-08-09T14:18:34.143Z,28.22
2022-08-09T14:20:57.533Z,28.24
2022-08-09T14:23:39.919Z,28.23
2022-08-09T14:26:05.948Z,28.25
2022-08-09T14:28:30.032Z,28.26
2022-08-09T14:30:57.444Z,28.29
2022-08-09T14:33:21.533Z,28.35
2022-08-09T14:35:52.851Z,28.34
2022-08-09T14:38:16.747Z,28.30
2022-08-09T14:41:02.347Z,28.33
2022-08-09T14:43:24.183Z,28.31
2022-08-09T14:46:57.106Z,28.30
2022-08-09T14:48:32.192Z,28.26
2022-08-09T14:50:56.258Z,28.24
2022-08-09T14:53:19.653Z,28.22
2022-08-09T14:55:47.887Z,28.22
2022-08-09T14:58:13.575Z,28.19
2022-08-09T15:00:37.124Z,28.20
2022-08-09T15:03:04.021Z,28.18
2022-08-09T15:05:29.565Z,28.17
2022-08-09T15:07:55.972Z,28.20
2022-08-09T15:10:20.439Z,28.20
2022-08-09T15:12:48.176Z,28.22
2022-08-09T15:15:13.396Z,28.22
2022-08-09T15:17:41.965Z,28.21
2022-08-09T15:20:11.798Z,28.21
2022-08-09T15:22:47.043Z,28.18
2022-08-09T15:25:11.128Z,28.19
2022-08-09T15:27:48.122Z,28.20
2022-08-09T15:30:48.740Z,28.22
2022-08-09T15:33:07.249Z,28.27
2022-08-09T15:35:44.417Z,28.25
2022-08-09T15:38:11.814Z,28.21
2022-08-09T15:40:35.431Z,28.23
2022-08-09T15:42:58.835Z,28.23
2022-08-09T15:45:29.568Z,28.19
2022-08-09T15:48:04.314Z,28.24
2022-08-09T15:50:31.181Z,28.23
2022-08-09T15:53:06.928Z,28.22
2022-08-09T15:56:18.083Z,28.19
2022-08-09T15:58:26.530Z,28.23
2022-08-09T16:00:50.603Z,28.23
2022-08-09T16:03:26.565Z,28.19
2022-08-09T16:05:55.942Z,28.39
2022-08-09T16:08:30.657Z,28.27
2022-08-09T16:10:57.004Z,28.19
2022-08-09T16:14:01.909Z,28.17
2022-08-09T16:16:17.259Z,28.17
2022-08-09T16:18:44.938Z,28.20
2022-08-09T16:21:08.733Z,28.17
2022-08-09T16:23:34.594Z,28.15
2022-08-09T16:26:02.769Z,28.13
2022-08-09T16:28:26.262Z,28.14
2022-08-09T16:30:58.438Z,28.16
2022-08-09T16:33:23.381Z,28.15
2022-08-09T16:35:55.822Z,28.11
2022-08-09T16:38:21.828Z,28.12
2022-08-09T16:40:47.947Z,28.13
2022-08-09T16:43:12.648Z,28.14
2022-08-09T16:45:44.398Z,28.16
2022-08-09T16:48:38.946Z,28.17
2022-08-09T16:50:59.708Z,28.20
2022-08-09T16:53:33.973Z,28.22
2022-08-09T16:56:03.666Z,28.20
2022-08-09T16:58:35.778Z,28.16
2022-08-09T17:00:59.383Z,28.15
2022-08-09T17:03:23.017Z,28.14
2022-08-09T17:06:07.160Z,28.16
2022-08-09T17:08:43.817Z,28.15
2022-08-09T17:11:12.978Z,28.20
2022-08-09T17:13:39.854Z,28.17
2022-08-09T17:16:08.381Z,28.16
2022-08-09T17:18:31.697Z,28.14
2022-08-09T17:20:55.021Z,28.14
2022-08-09T17:23:18.354Z,28.14
2022-08-09T17:25:41.599Z,28.20
2022-08-09T17:28:05.786Z,28.16
2022-08-09T17:30:30.530Z,28.17
2022-08-09T17:32:54.342Z,28.21
2022-08-09T17:35:17.627Z,28.25
2022-08-09T17:38:02.453Z,28.25
2022-08-09T17:40:25.942Z,28.26
2022-08-09T17:42:49.594Z,28.23
2022-08-09T17:45:23.709Z,28.21
2022-08-09T17:47:54.816Z,28.24
2022-08-09T17:50:36.059Z,28.22
2022-08-09T17:52:59.902Z,28.19
2022-08-09T17:55:23.419Z,28.21
2022-08-09T17:58:03.221Z,28.20
2022-08-09T18:00:39.093Z,28.16
2022-08-09T18:03:11.657Z,28.16
2022-08-09T18:05:43.364Z,28.15
2022-08-09T18:08:07.339Z,28.14
2022-08-09T18:10:34.574Z,28.14
2022-08-09T18:13:39.306Z,28.14
2022-08-09T18:16:05.097Z,28.16
2022-08-09T18:18:32.849Z,28.16
2022-08-09T18:21:17.754Z,28.14
2022-08-09T18:24:11.361Z,28.15
2022-08-09T18:26:26.039Z,28.13
2022-08-09T18:30:41.058Z,28.14
2022-08-09T18:31:55.346Z,28.15
2022-08-09T18:34:17.961Z,28.14
2022-08-09T18:36:46.530Z,28.13
2022-08-09T18:39:16.163Z,28.15
2022-08-09T18:41:42.355Z,28.11
2022-08-09T18:44:16.815Z,28.08
2022-08-09T18:46:50.296Z,28.10
2022-08-09T18:49:25.424Z,28.04
2022-08-09T18:51:55.361Z,28.03
2022-08-09T18:54:28.690Z,28.01
2022-08-09T18:56:55.128Z,27.98
2022-08-09T18:59:18.544Z,27.96
2022-08-09T19:01:45.849Z,27.98
2022-08-09T19:04:10.529Z,27.90
2022-08-09T19:06:35.113Z,27.88
2022-08-09T19:09:03.342Z,27.85
2022-08-09T19:11:35.314Z,27.81
2022-08-09T19:14:03.218Z,27.80
2022-08-09T19:16:35.924Z,27.73
2022-08-09T19:19:00.390Z,27.71
2022-08-09T19:21:47.765Z,27.70
2022-08-09T19:24:32.920Z,27.68
2022-08-09T19:26:52.967Z,27.64
2022-08-09T19:29:20.596Z,27.61
2022-08-09T19:31:45.872Z,27.63
2022-08-09T19:34:09.561Z,27.65
2022-08-09T19:36:45.666Z,27.65
2022-08-09T19:39:10.630Z,27.62
2022-08-09T19:41:35.652Z,27.59
2022-08-09T19:44:02.656Z,27.60
2022-08-09T19:46:33.980Z,27.56
2022-08-09T19:50:06.884Z,27.56
2022-08-09T19:51:47.934Z,27.51
2022-08-09T19:54:20.032Z,27.45
2022-08-09T19:56:46.203Z,27.49
2022-08-09T19:59:39.523Z,27.52
2022-08-09T20:02:06.365Z,27.45
2022-08-09T20:04:40.830Z,27.47
2022-08-09T20:07:21.212Z,27.43
2022-08-09T20:09:47.349Z,27.34
2022-08-09T20:12:27.019Z,27.35
2022-08-09T20:14:53.410Z,27.39
2022-08-09T20:17:17.263Z,27.35
2022-08-09T20:19:48.750Z,27.31
2022-08-09T20:22:18.471Z,27.32
2022-08-09T20:24:41.838Z,27.36
2022-08-09T20:27:08.296Z,27.38
2022-08-09T20:29:37.864Z,27.35
2022-08-09T20:32:33.021Z,27.31
2022-08-09T20:34:44.915Z,27.29
2022-08-09T20:37:09.198Z,27.24
2022-08-09T20:40:16.121Z,27.27
2022-08-09T20:42:18.022Z,27.17
2022-08-09T20:44:42.490Z,27.19
2022-08-09T20:47:48.218Z,27.16
2022-08-09T20:50:14.781Z,27.14
2022-08-09T20:52:53.656Z,27.20
2022-08-09T20:55:17.030Z,27.22
2022-08-09T20:58:05.278Z,27.18
2022-08-09T21:00:31.694Z,27.20
2022-08-09T21:02:55.442Z,27.19
2022-08-09T21:05:52.734Z,27.22
2022-08-09T21:08:06.239Z,27.18
2022-08-09T21:10:30.581Z,27.19
2022-08-09T21:15:35.076Z,27.18
2022-08-09T21:18:23.477Z,27.15
2022-08-09T21:20:42.226Z,27.19
2022-08-09T21:23:09.283Z,27.17
2022-08-09T21:25:59.729Z,27.20
2022-08-09T21:28:33.318Z,27.22
2022-08-09T21:30:58.619Z,27.24
2022-08-09T21:33:21.833Z,27.24
2022-08-09T21:35:52.493Z,27.25
2022-08-09T21:38:16.213Z,27.27
2022-08-09T21:40:40.875Z,27.25
2022-08-09T21:43:06.153Z,27.24
2022-08-09T21:45:31.047Z,27.28
2022-08-09T21:48:02.415Z,27.20
2022-08-09T21:50:35.941Z,27.08
2022-08-09T21:53:02.400Z,27.06
2022-08-09T21:55:27.167Z,27.08
2022-08-09T21:57:59.134Z,27.00
2022-08-09T22:00:25.793Z,26.93
2022-08-09T22:02:59.324Z,26.93
2022-08-09T22:05:23.765Z,26.99
2022-08-09T22:07:59.638Z,26.88
2022-08-09T22:10:24.241Z,26.86
2022-08-09T22:12:50.013Z,26.74
2022-08-09T22:15:16.893Z,26.81
2022-08-09T22:17:45.987Z,26.69
2022-08-09T22:20:16.766Z,26.68
2022-08-09T22:22:40.521Z,26.60
2022-08-09T22:26:06.969Z,26.55
2022-08-09T22:27:47.995Z,26.60
2022-08-09T22:30:13.102Z,26.58
2022-08-09T22:32:38.377Z,26.44
2022-08-09T22:35:06.875Z,26.53
2022-08-09T22:37:47.819Z,26.42
2022-08-09T22:40:27.073Z,26.45
2022-08-09T22:42:51.038Z,26.54
2022-08-09T22:48:12.672Z,26.40
2022-08-09T22:48:12.888Z,26.51
2022-08-09T22:50:41.063Z,26.42
2022-08-09T22:53:17.866Z,26.36
2022-08-09T22:56:31.032Z,26.31
2022-08-09T22:58:32.628Z,26.23
2022-08-09T23:00:56.780Z,26.28
2022-08-09T23:04:04.644Z,26.30
2022-08-09T23:06:04.561Z,26.19
2022-08-09T23:08:46.304Z,26.20
2022-08-09T23:11:11.040Z,26.28
2022-08-09T23:13:34.282Z,26.22
2022-08-09T23:16:02.190Z,26.18
2022-08-09T23:18:26.913Z,26.15
2022-08-09T23:20:50.198Z,26.10
2022-08-09T23:23:13.448Z,26.17
2022-08-09T23:25:38.167Z,26.08
2022-08-09T23:28:15.336Z,26.13
2022-08-09T23:30:39.412Z,26.14
2022-08-09T23:33:05.428Z,26.08
2022-08-09T23:35:28.702Z,26.14
2022-08-09T23:37:52.086Z,26.12
2022-08-09T23:40:17.011Z,26.09
2022-08-09T23:42:41.729Z,25.89
2022-08-09T23:45:05.635Z,25.89
2022-08-09T23:47:32.048Z,25.91
2022-08-09T23:49:55.376Z,25.99
2022-08-09T23:52:18.661Z,25.94
2022-08-09T23:54:47.602Z,25.78
2022-08-09T23:57:10.884Z,25.72
2022-08-09T23:59:54.726Z,25.75
